createdAt,value
2018-07-16T00:02:25.617Z,99376.94
2018-07-16T00:04:53.095Z,99383.95
2018-07-16T00:07:20.518Z,99374.06
2018-07-16T00:09:48.018Z,99377.07
2018-07-16T00:12:15.518Z,99369.34
2018-07-16T00:14:42.995Z,99371.56
2018-07-16T00:17:10.529Z,99362.94
2018-07-16T00:19:38.006Z,99364.14
2018-07-16T00:22:05.533Z,99361.67
2018-07-16T00:24:32.945Z,99360.31
2018-07-16T00:27:00.446Z,99356.09
2018-07-16T00:29:27.857Z,99357.97
2018-07-16T00:31:56.335Z,99354.25
2018-07-16T00:34:24.138Z,99348.88
2018-07-16T00:36:51.651Z,99345.08
2018-07-16T00:39:19.130Z,99346.41
2018-07-16T00:41:46.618Z,99347.78
2018-07-16T00:44:14.154Z,99340.97
2018-07-16T00:46:41.591Z,99335.71
2018-07-16T00:49:09.634Z,99335.33
2018-07-16T00:51:37.006Z,99328.42
2018-07-16T00:54:04.473Z,99335.56
2018-07-16T00:56:31.967Z,99328.42
2018-07-16T00:58:59.411Z,99325.48
2018-07-16T01:01:26.834Z,99331.05
2018-07-16T01:03:54.333Z,99326.13
2018-07-16T01:06:21.831Z,99326.61
2018-07-16T01:08:49.202Z,99325.62
2018-07-16T01:11:16.666Z,99323.98
2018-07-16T01:13:44.170Z,99328.84
2018-07-16T01:16:11.558Z,99320.39
2018-07-16T01:18:39.034Z,99317.65
2018-07-16T01:21:06.578Z,99320.22
2018-07-16T01:23:33.945Z,99317.48
2018-07-16T01:26:01.386Z,99324.35
2018-07-16T01:28:28.846Z,99321.34
2018-07-16T01:30:56.299Z,99322.75
2018-07-16T01:33:24.774Z,99326.98
2018-07-16T01:35:52.254Z,99313.92
2018-07-16T01:38:19.693Z,99313.17
2018-07-16T01:40:47.177Z,99316.45
2018-07-16T01:43:16.348Z,99323.74
2018-07-16T01:45:43.755Z,99327.81
2018-07-16T01:48:11.190Z,99325.90
2018-07-16T01:50:38.646Z,99319.73
2018-07-16T01:53:06.126Z,99316.45
2018-07-16T01:55:33.662Z,99318.91
2018-07-16T01:58:01.683Z,99313.69
2018-07-16T02:00:29.223Z,99307.70
2018-07-16T02:02:56.646Z,99308.72
2018-07-16T02:05:24.143Z,99309.55
2018-07-16T02:07:51.588Z,99307.46
2018-07-16T02:10:19.033Z,99299.56
2018-07-16T02:12:46.479Z,99297.78
2018-07-16T02:15:13.942Z,99293.23
2018-07-16T02:17:41.421Z,99293.27
2018-07-16T02:20:08.861Z,99291.31
2018-07-16T02:22:36.328Z,99290.77
2018-07-16T02:25:03.899Z,99288.00
2018-07-16T02:27:36.774Z,99290.22
2018-07-16T02:31:07.482Z,99294.77
2018-07-16T02:33:34.976Z,99289.91
2018-07-16T02:36:02.438Z,99286.84
2018-07-16T02:38:29.856Z,99288.20
2018-07-16T02:40:57.304Z,99290.70
2018-07-16T02:43:24.775Z,99286.63
2018-07-16T02:45:52.232Z,99297.06
2018-07-16T02:48:19.693Z,99297.16
2018-07-16T02:51:50.154Z,99300.10
2018-07-16T02:54:17.694Z,99294.36
2018-07-16T02:56:45.174Z,99296.62
2018-07-16T02:59:12.629Z,99297.57
2018-07-16T03:01:40.111Z,99291.66
2018-07-16T03:04:07.536Z,99296.13
2018-07-16T03:08:01.174Z,99297.33
2018-07-16T03:10:28.667Z,99288.68
2018-07-16T03:12:56.102Z,99289.39
2018-07-16T03:15:24.178Z,99293.70
2018-07-16T03:17:51.705Z,99291.34
2018-07-16T03:20:19.612Z,99294.77
2018-07-16T03:22:46.965Z,99292.92
2018-07-16T03:25:14.405Z,99292.37
2018-07-16T03:27:41.900Z,99294.22
2018-07-16T03:30:09.342Z,99290.12
2018-07-16T03:32:36.769Z,99287.03
2018-07-16T03:35:04.280Z,99279.99
2018-07-16T03:37:31.677Z,99289.16
2018-07-16T03:39:59.178Z,99285.91
2018-07-16T03:42:26.617Z,99289.26
2018-07-16T03:44:54.106Z,99286.62
2018-07-16T03:47:22.682Z,99281.66
2018-07-16T03:50:02.548Z,99282.09
2018-07-16T03:52:29.965Z,99285.19
2018-07-16T03:55:02.007Z,99287.81
2018-07-16T03:57:34.753Z,99281.52
2018-07-16T04:02:44.471Z,99283.84
2018-07-16T04:05:11.876Z,99286.64
2018-07-16T04:07:41.024Z,99283.87
2018-07-16T04:10:16.437Z,99283.09
2018-07-16T04:12:44.880Z,99287.02
2018-07-16T04:17:50.352Z,99281.02
2018-07-16T04:20:18.445Z,99280.57
2018-07-16T04:22:47.150Z,99288.67
2018-07-16T04:25:15.070Z,99284.13
2018-07-16T04:27:42.530Z,99278.48
2018-07-16T04:30:13.626Z,99281.77
2018-07-16T04:45:52.064Z,99273.70
2018-07-16T04:54:14.702Z,99277.31
2018-07-16T04:56:42.501Z,99281.05
2018-07-16T04:59:10.962Z,99282.19
2018-07-16T05:01:38.422Z,99276.50
2018-07-16T05:04:05.959Z,99270.66
2018-07-16T05:06:33.456Z,99273.77
2018-07-16T05:09:00.849Z,99272.33
2018-07-16T05:11:28.265Z,99274.42
2018-07-16T05:13:55.722Z,99275.06
2018-07-16T05:16:23.215Z,99281.34
2018-07-16T05:18:50.623Z,99280.16
2018-07-16T05:21:18.101Z,99278.78
2018-07-16T05:23:45.583Z,99274.88
2018-07-16T05:26:13.015Z,99272.84
2018-07-16T05:28:40.475Z,99267.81
2018-07-16T05:31:07.958Z,99270.27
2018-07-16T05:33:35.391Z,99276.07
2018-07-16T05:36:02.825Z,99273.20
2018-07-16T05:38:30.346Z,99268.11
2018-07-16T05:40:58.003Z,99264.45
2018-07-16T05:43:25.439Z,99264.45
2018-07-16T05:45:52.853Z,99258.95
2018-07-16T05:48:20.398Z,99255.81
2018-07-16T05:50:47.842Z,99257.11
2018-07-16T05:53:15.232Z,99251.54
2018-07-16T05:55:42.673Z,99254.25
2018-07-16T05:58:10.176Z,99251.27
2018-07-16T06:00:37.614Z,99254.38
2018-07-16T06:03:05.173Z,99254.63
2018-07-16T06:05:32.541Z,99248.80
2018-07-16T06:08:00.027Z,99250.75
2018-07-16T06:10:27.495Z,99249.21
2018-07-16T06:12:56.597Z,99251.84
2018-07-16T06:15:24.026Z,99253.11
2018-07-16T06:17:51.515Z,99254.89
2018-07-16T06:20:19.409Z,99252.70
2018-07-16T06:22:46.808Z,99253.11
2018-07-16T06:25:15.270Z,99255.44
2018-07-16T06:27:42.749Z,99257.11
2018-07-16T06:30:10.154Z,99254.63
2018-07-16T06:32:37.924Z,99254.98
2018-07-16T06:35:05.321Z,99255.78
2018-07-16T06:37:32.742Z,99251.33
2018-07-16T06:40:00.332Z,99258.34
2018-07-16T06:42:27.637Z,99254.52
2018-07-16T06:44:55.121Z,99254.92
2018-07-16T06:47:22.558Z,99258.55
2018-07-16T06:49:51.059Z,99260.43
2018-07-16T06:52:19.517Z,99256.36
2018-07-16T06:54:47.013Z,99251.17
2018-07-16T06:57:14.433Z,99257.05
2018-07-16T06:59:44.957Z,99255.17
2018-07-16T07:02:12.454Z,99252.66
2018-07-16T07:04:39.885Z,99255.05
2018-07-16T07:07:07.419Z,99252.97
2018-07-16T07:10:59.394Z,99247.09
2018-07-16T07:13:26.845Z,99241.53
2018-07-16T07:15:55.357Z,99239.58
2018-07-16T07:18:22.772Z,99241.12
2018-07-16T07:20:50.282Z,99236.73
2018-07-16T07:23:17.695Z,99240.06
2018-07-16T07:25:45.688Z,99243.09
2018-07-16T07:28:13.261Z,99234.55
2018-07-16T07:30:40.731Z,99233.11
2018-07-16T07:33:08.250Z,99233.77
2018-07-16T07:35:37.677Z,99230.72
2018-07-16T07:38:05.099Z,99234.18
2018-07-16T07:40:32.553Z,99230.83
2018-07-16T07:42:59.993Z,99229.80
2018-07-16T07:45:27.518Z,99228.27
2018-07-16T07:47:55.005Z,99225.63
2018-07-16T07:50:27.107Z,99224.92
2018-07-16T07:52:54.620Z,99225.84
2018-07-16T07:55:22.480Z,99221.29
2018-07-16T07:57:49.541Z,99215.24
2018-07-16T08:00:16.967Z,99217.63
2018-07-16T08:02:48.081Z,99216.16
2018-07-16T08:05:15.594Z,99217.12
2018-07-16T08:07:42.997Z,99210.05
2018-07-16T08:10:13.866Z,99213.33
2018-07-16T08:12:41.479Z,99215.14
2018-07-16T08:15:08.842Z,99215.55
2018-07-16T08:17:36.401Z,99212.73
2018-07-16T08:20:04.385Z,99214.00
2018-07-16T08:22:39.092Z,99214.72
2018-07-16T08:25:06.542Z,99209.94
2018-07-16T08:27:33.941Z,99199.91
2018-07-16T08:30:01.475Z,99208.01
2018-07-16T08:32:28.849Z,99203.25
2018-07-16T08:34:56.276Z,99205.14
2018-07-16T08:37:23.806Z,99204.95
2018-07-16T08:39:51.202Z,99201.53
2018-07-16T08:42:18.621Z,99210.02
2018-07-16T08:44:46.111Z,99206.73
2018-07-16T08:47:13.544Z,99200.52
2018-07-16T08:49:41.020Z,99204.53
2018-07-16T08:52:08.450Z,99213.05
2018-07-16T08:54:35.956Z,99207.53
2018-07-16T08:57:03.375Z,99218.41
2018-07-16T08:59:30.834Z,99216.56
2018-07-16T09:01:58.313Z,99207.33
2018-07-16T09:04:25.807Z,99211.40
2018-07-16T09:06:53.206Z,99218.58
2018-07-16T09:09:20.689Z,99218.16
2018-07-16T09:11:48.161Z,99218.30
2018-07-16T09:14:15.579Z,99209.63
2018-07-16T09:16:43.057Z,99216.63
2018-07-16T09:19:11.514Z,99220.02
2018-07-16T09:21:39.926Z,99206.34
2018-07-16T09:24:07.477Z,99199.80
2018-07-16T09:26:34.910Z,99204.94
2018-07-16T09:29:02.389Z,99216.87
2018-07-16T09:31:29.849Z,99203.88
2018-07-16T09:33:57.278Z,99208.42
2018-07-16T09:36:24.742Z,99208.77
2018-07-16T09:38:52.266Z,99202.13
2018-07-16T09:41:19.708Z,99205.14
2018-07-16T09:43:47.121Z,99201.89
2018-07-16T09:46:14.597Z,99198.38
2018-07-16T09:48:42.030Z,99196.05
2018-07-16T09:51:09.519Z,99195.26
2018-07-16T09:53:36.929Z,99202.55
2018-07-16T09:56:04.655Z,99204.53
2018-07-16T09:58:32.064Z,99200.83
2018-07-16T10:00:59.566Z,99194.30
2018-07-16T10:03:26.970Z,99198.19
2018-07-16T10:05:54.521Z,99195.19
2018-07-16T10:08:21.928Z,99193.57
2018-07-16T10:10:49.345Z,99193.57
2018-07-16T10:13:16.818Z,99200.98
2018-07-16T10:15:44.281Z,99201.24
2018-07-16T10:18:11.717Z,99193.83
2018-07-16T10:20:39.246Z,99195.08
2018-07-16T10:23:06.651Z,99188.30
2018-07-16T10:25:34.100Z,99192.55
2018-07-16T10:28:03.610Z,99183.83
2018-07-16T10:30:31.957Z,99186.80
2018-07-16T10:32:59.349Z,99194.16
2018-07-16T10:35:26.798Z,99187.66
2018-07-16T10:37:54.236Z,99187.45
2018-07-16T10:40:21.731Z,99187.41
2018-07-16T10:42:49.165Z,99182.62
2018-07-16T10:45:16.647Z,99181.25
2018-07-16T10:47:44.346Z,99182.45
2018-07-16T10:50:11.737Z,99176.23
2018-07-16T10:52:39.210Z,99171.52
2018-07-16T10:55:06.720Z,99165.13
2018-07-16T10:57:34.126Z,99161.94
2018-07-16T11:00:01.549Z,99162.54
2018-07-16T11:02:29.039Z,99164.16
2018-07-16T11:04:56.519Z,99164.39
2018-07-16T11:07:23.950Z,99158.09
2018-07-16T11:09:51.393Z,99158.28
2018-07-16T11:12:18.865Z,99154.89
2018-07-16T11:14:46.289Z,99156.47
2018-07-16T11:17:13.763Z,99152.72
2018-07-16T11:19:41.268Z,99160.70
2018-07-16T11:22:08.683Z,99154.20
2018-07-16T11:24:36.180Z,99145.39
2018-07-16T11:27:03.801Z,99147.11
2018-07-16T11:29:31.298Z,99140.91
2018-07-16T11:31:58.721Z,99147.43
2018-07-16T11:34:26.206Z,99145.45
2018-07-16T11:36:53.894Z,99143.81
2018-07-16T11:39:21.289Z,99146.09
2018-07-16T11:41:48.753Z,99145.20
2018-07-16T11:44:17.062Z,99140.23
2018-07-16T11:46:44.497Z,99143.76
2018-07-16T11:49:11.933Z,99140.14
2018-07-16T11:51:39.419Z,99142.83
2018-07-16T11:54:06.858Z,99135.93
2018-07-16T11:56:34.957Z,99133.28
2018-07-16T11:59:02.434Z,99137.69
2018-07-16T12:01:29.861Z,99131.98
2018-07-16T12:03:57.281Z,99135.28
2018-07-16T12:06:24.758Z,99123.13
2018-07-16T12:08:52.723Z,99120.12
2018-07-16T12:11:20.118Z,99119.27
2018-07-16T12:13:47.551Z,99118.91
2018-07-16T12:16:15.029Z,99113.30
2018-07-16T12:18:44.154Z,99117.94
2018-07-16T12:21:11.553Z,99113.75
2018-07-16T12:23:39.002Z,99103.13
2018-07-16T12:26:06.474Z,99103.13
2018-07-16T12:28:33.925Z,99102.48
2018-07-16T12:31:01.484Z,99100.59
2018-07-16T12:33:28.956Z,99098.07
2018-07-16T12:35:56.617Z,99096.96
2018-07-16T12:38:24.177Z,99088.79
2018-07-16T12:40:51.630Z,99086.47
2018-07-16T12:43:19.066Z,99091.41
2018-07-16T12:45:46.513Z,99082.45
2018-07-16T12:48:14.054Z,99077.06
2018-07-16T12:50:41.441Z,99076.73
2018-07-16T12:53:08.900Z,99080.72
2018-07-16T12:55:36.637Z,99070.66
2018-07-16T12:58:04.096Z,99068.98
2018-07-16T13:00:31.517Z,99066.80
2018-07-16T13:02:59.051Z,99070.78
2018-07-16T13:05:26.410Z,99057.03
2018-07-16T13:07:53.849Z,99067.68
2018-07-16T13:10:21.293Z,99058.50
2018-07-16T13:12:48.787Z,99056.45
2018-07-16T13:15:16.203Z,99050.36
2018-07-16T13:17:43.693Z,99043.50
2018-07-16T13:20:11.153Z,99042.17
2018-07-16T13:22:39.108Z,99038.66
2018-07-16T13:25:06.488Z,99042.61
2018-07-16T13:27:33.902Z,99031.31
2018-07-16T13:30:01.486Z,99028.57
2018-07-16T13:32:28.908Z,99028.57
2018-07-16T13:34:56.737Z,99036.08
2018-07-16T13:38:28.274Z,99026.46
2018-07-16T13:40:55.829Z,99028.68
2018-07-16T13:43:23.161Z,99025.03
2018-07-16T13:45:50.616Z,99023.94
2018-07-16T13:48:18.091Z,99025.25
2018-07-16T13:50:45.584Z,99017.95
2018-07-16T13:53:13.059Z,99012.86
2018-07-16T13:55:40.474Z,99015.96
2018-07-16T13:58:07.942Z,99023.05
2018-07-16T14:00:35.385Z,99017.95
2018-07-16T14:03:02.846Z,99020.41
2018-07-16T14:05:30.281Z,99030.61
2018-07-16T14:07:57.760Z,99019.98
2018-07-16T14:10:25.199Z,99010.48
2018-07-16T14:12:53.198Z,99007.05
2018-07-16T14:15:21.087Z,99009.48
2018-07-16T14:17:48.602Z,99015.47
2018-07-16T14:20:16.061Z,99013.02
2018-07-16T14:22:43.570Z,99014.23
2018-07-16T14:25:10.972Z,99010.02
2018-07-16T14:27:38.522Z,99003.39
2018-07-16T14:30:05.868Z,99010.46
2018-07-16T14:32:33.350Z,98998.63
2018-07-16T14:35:01.960Z,99000.30
2018-07-16T14:37:30.110Z,99002.73
2018-07-16T14:39:57.545Z,99000.83
2018-07-16T14:42:25.035Z,99001.08
2018-07-16T14:44:52.535Z,98995.64
2018-07-16T14:47:20.306Z,98995.55
2018-07-16T14:49:47.897Z,99000.39
2018-07-16T14:52:15.234Z,98994.77
2018-07-16T14:54:42.722Z,98990.77
2018-07-16T14:57:10.232Z,98985.23
2018-07-16T14:59:37.676Z,98999.42
2018-07-16T15:02:05.081Z,99001.52
2018-07-16T15:04:32.557Z,98998.86
2018-07-16T15:07:00.125Z,98996.20
2018-07-16T15:09:27.658Z,98994.32
2018-07-16T15:11:55.117Z,98990.45
2018-07-16T15:14:22.623Z,99000.52
2018-07-16T15:16:50.056Z,98994.19
2018-07-16T15:19:17.481Z,98994.98
2018-07-16T15:21:44.995Z,98996.08
2018-07-16T15:24:12.378Z,98982.81
2018-07-16T15:26:39.861Z,98983.69
2018-07-16T15:29:07.302Z,98984.13
2018-07-16T15:31:35.088Z,98995.32
2018-07-16T15:34:02.415Z,98988.78
2018-07-16T15:36:29.884Z,98980.94
2018-07-16T15:38:57.351Z,98988.88
2018-07-16T15:41:24.835Z,98989.09
2018-07-16T15:43:52.274Z,98982.25
2018-07-16T15:46:19.757Z,98988.78
2018-07-16T15:48:48.020Z,98985.47
2018-07-16T15:51:15.452Z,98981.25
2018-07-16T15:53:42.960Z,98986.22
2018-07-16T15:56:10.383Z,98985.03
2018-07-16T15:58:37.837Z,98974.72
2018-07-16T16:01:05.502Z,98976.94
2018-07-16T16:03:32.957Z,98975.72
2018-07-16T16:06:00.470Z,98973.49
2018-07-16T16:08:27.867Z,98978.38
2018-07-16T16:10:55.341Z,98969.73
2018-07-16T16:13:22.794Z,98975.06
2018-07-16T16:15:50.248Z,98969.61
2018-07-16T16:18:17.702Z,98972.18
2018-07-16T16:20:45.150Z,98967.08
2018-07-16T16:23:12.680Z,98960.55
2018-07-16T16:25:40.062Z,98965.20
2018-07-16T16:28:07.509Z,98965.64
2018-07-16T16:30:35.039Z,98968.52
2018-07-16T16:33:04.119Z,98966.42
2018-07-16T16:35:31.546Z,98967.73
2018-07-16T16:37:59.080Z,98971.30
2018-07-16T16:40:26.487Z,98968.73
2018-07-16T16:42:53.916Z,98959.79
2018-07-16T16:45:21.392Z,98973.73
2018-07-16T16:47:48.826Z,98962.23
2018-07-16T16:51:19.059Z,98969.06
2018-07-16T16:53:46.405Z,98956.03
2018-07-16T16:56:13.906Z,98964.88
2018-07-16T16:58:41.359Z,98964.89
2018-07-16T17:01:08.777Z,98965.10
2018-07-16T17:03:36.274Z,98966.19
2018-07-16T17:06:03.729Z,98966.53
2018-07-16T17:08:31.147Z,98965.97
2018-07-16T17:10:58.601Z,98958.47
2018-07-16T17:13:26.046Z,98971.85
2018-07-16T17:15:57.610Z,98959.56
2018-07-16T17:18:27.178Z,98962.88
2018-07-16T17:21:13.165Z,98959.47
2018-07-16T17:23:40.670Z,98962.32
2018-07-16T17:26:08.169Z,98967.98
2018-07-16T17:28:43.983Z,98977.05
2018-07-16T17:31:11.470Z,98975.27
2018-07-16T17:33:38.877Z,98973.18
2018-07-16T17:36:06.343Z,98966.77
2018-07-16T17:38:33.803Z,98966.55
2018-07-16T17:41:01.291Z,98967.20
2018-07-16T17:43:28.710Z,98969.30
2018-07-16T17:45:56.273Z,98968.40
2018-07-16T17:48:23.633Z,98974.84
2018-07-16T17:50:51.079Z,98979.37
2018-07-16T17:53:18.804Z,98976.28
2018-07-16T17:55:46.252Z,98977.81
2018-07-16T17:58:13.661Z,98981.13
2018-07-16T18:00:41.201Z,98989.02
2018-07-16T18:03:08.573Z,98985.89
2018-07-16T18:05:36.090Z,98987.11
2018-07-16T18:08:03.522Z,98989.33
2018-07-16T18:10:30.938Z,98990.11
2018-07-16T18:12:59.575Z,98992.20
2018-07-16T18:15:27.104Z,98987.23
2018-07-16T18:17:54.602Z,98987.23
2018-07-16T18:20:22.762Z,98995.42
2018-07-16T18:22:50.289Z,98986.89
2018-07-16T18:25:17.859Z,98993.06
2018-07-16T18:27:45.411Z,98995.50
2018-07-16T18:30:12.881Z,98999.70
2018-07-16T18:32:40.326Z,98997.47
2018-07-16T18:35:08.837Z,98996.07
2018-07-16T18:37:36.320Z,99003.66
2018-07-16T18:40:04.224Z,99005.80
2018-07-16T18:42:31.650Z,99007.55
2018-07-16T18:44:59.052Z,99007.46
2018-07-16T18:47:26.501Z,99014.31
2018-07-16T18:49:53.945Z,99022.17
2018-07-16T18:52:21.418Z,99023.17
2018-07-16T18:54:48.892Z,99022.81
2018-07-16T18:57:16.356Z,99023.03
2018-07-16T18:59:43.783Z,99021.81
2018-07-16T19:02:11.239Z,99017.62
2018-07-16T19:04:38.768Z,99020.81
2018-07-16T19:07:06.158Z,99022.08
2018-07-16T19:09:33.617Z,99023.95
2018-07-16T19:12:01.078Z,99024.30
2018-07-16T19:14:29.155Z,99027.72
2018-07-16T19:16:56.593Z,99035.14
2018-07-16T19:19:24.070Z,99035.83
2018-07-16T19:21:51.507Z,99038.70
2018-07-16T19:24:18.981Z,99039.27
2018-07-16T19:26:46.433Z,99044.69
2018-07-16T19:29:13.870Z,99049.79
2018-07-16T19:31:41.394Z,99050.64
2018-07-16T19:34:08.790Z,99052.98
2018-07-16T19:36:36.263Z,99057.74
2018-07-16T19:39:05.984Z,99054.08
2018-07-16T19:41:33.422Z,99057.18
2018-07-16T19:44:00.891Z,99064.81
2018-07-16T19:46:28.310Z,99062.28
2018-07-16T19:48:55.797Z,99069.94
2018-07-16T19:51:23.237Z,99075.03
2018-07-16T19:53:50.715Z,99070.13
2018-07-16T19:56:18.154Z,99070.78
2018-07-16T19:58:45.601Z,99075.08
2018-07-16T20:01:13.097Z,99081.04
2018-07-16T20:03:40.525Z,99075.61
2018-07-16T20:06:08.029Z,99075.28
2018-07-16T20:08:35.450Z,99079.27
2018-07-16T20:11:02.924Z,99079.60
2018-07-16T20:13:30.510Z,99084.75
2018-07-16T20:15:57.997Z,99083.44
2018-07-16T20:18:25.463Z,99082.28
2018-07-16T20:20:53.468Z,99082.64
2018-07-16T20:23:20.838Z,99084.95
2018-07-16T20:25:48.484Z,99086.27
2018-07-16T20:28:16.018Z,99088.79
2018-07-16T20:30:43.389Z,99087.55
2018-07-16T20:33:10.829Z,99096.14
2018-07-16T20:35:38.277Z,99104.08
2018-07-16T20:38:05.829Z,99104.30
2018-07-16T20:40:33.226Z,99104.66
2018-07-16T20:43:00.650Z,99104.00
2018-07-16T20:45:28.138Z,99109.28
2018-07-16T20:47:55.602Z,99100.16
2018-07-16T20:50:23.036Z,99102.66
2018-07-16T20:52:50.494Z,99105.98
2018-07-16T20:55:17.970Z,99106.72
2018-07-16T20:57:45.414Z,99115.52
2018-07-16T21:00:12.932Z,99114.83
2018-07-16T21:02:40.350Z,99119.80
2018-07-16T21:05:07.812Z,99117.31
2018-07-16T21:07:35.217Z,99126.41
2018-07-16T21:10:02.942Z,99127.08
2018-07-16T21:12:30.382Z,99124.53
2018-07-16T21:14:57.804Z,99131.68
2018-07-16T21:17:25.275Z,99135.61
2018-07-16T21:19:52.731Z,99129.33
2018-07-16T21:22:21.045Z,99131.31
2018-07-16T21:24:48.485Z,99129.16
2018-07-16T21:27:15.941Z,99130.97
2018-07-16T21:29:43.403Z,99133.36
2018-07-16T21:32:11.025Z,99141.13
2018-07-16T21:34:39.537Z,99141.19
2018-07-16T21:37:06.981Z,99149.63
2018-07-16T21:39:34.425Z,99145.84
2018-07-16T21:42:01.934Z,99143.34
2018-07-16T21:44:29.337Z,99149.08
2018-07-16T21:46:56.814Z,99145.84
2018-07-16T21:49:24.295Z,99153.38
2018-07-16T21:51:51.752Z,99150.53
2018-07-16T21:54:19.182Z,99154.97
2018-07-16T21:56:46.623Z,99151.22
2018-07-16T21:59:14.089Z,99148.51
2018-07-16T22:01:41.551Z,99152.57
2018-07-16T22:04:08.994Z,99149.34
2018-07-16T22:06:36.469Z,99152.97
2018-07-16T22:09:04.670Z,99146.72
2018-07-16T22:11:32.004Z,99149.00
2018-07-16T22:13:59.438Z,99149.22
2018-07-16T22:16:26.944Z,99150.23
2018-07-16T22:18:54.434Z,99150.04
2018-07-16T22:21:21.821Z,99163.88
2018-07-16T22:23:49.283Z,99156.78
2018-07-16T22:26:16.741Z,99150.73
2018-07-16T22:28:44.230Z,99149.99
2018-07-16T22:31:11.649Z,99154.63
2018-07-16T22:33:39.121Z,99163.80
2018-07-16T22:36:06.586Z,99157.60
2018-07-16T22:38:34.012Z,99161.91
2018-07-16T22:41:03.967Z,99162.77
2018-07-16T22:43:31.383Z,99161.28
2018-07-16T22:46:00.364Z,99169.56
2018-07-16T22:48:28.635Z,99168.36
2018-07-16T22:50:56.191Z,99170.83
2018-07-16T22:53:24.440Z,99169.33
2018-07-16T22:55:52.283Z,99168.69
2018-07-16T22:58:19.662Z,99170.12
2018-07-16T23:00:47.074Z,99169.81
2018-07-16T23:03:17.857Z,99168.63
2018-07-16T23:05:45.300Z,99166.16
2018-07-16T23:08:16.210Z,99161.69
2018-07-16T23:10:44.470Z,99163.60
2018-07-16T23:13:14.619Z,99167.09
2018-07-16T23:15:42.645Z,99164.87
2018-07-16T23:18:10.168Z,99165.52
2018-07-16T23:20:37.719Z,99169.95
2018-07-16T23:23:05.118Z,99170.84
2018-07-16T23:25:32.507Z,99175.39
2018-07-16T23:28:00.019Z,99174.44
2018-07-16T23:30:27.481Z,99174.74
2018-07-16T23:32:54.889Z,99174.37
2018-07-16T23:35:22.349Z,99172.45
2018-07-16T23:37:49.769Z,99173.78
2018-07-16T23:40:17.249Z,99175.33
2018-07-16T23:42:44.818Z,99177.65
2018-07-16T23:45:12.154Z,99180.25
2018-07-16T23:47:39.454Z,99172.70
2018-07-16T23:50:06.904Z,99178.27
2018-07-16T23:52:34.345Z,99169.89
2018-07-16T23:55:01.817Z,99169.98
2018-07-16T23:57:29.251Z,99166.84
2018-07-16T23:59:56.718Z,99166.95
